EIN15E EIDW-EGLL
Flight info
| Callsign | EIN15E |
|---|---|
| Flight time | 0h 58m |
| Altitude | 33000 |
| Route | PESIT2J PESIT DCT BAKUR DCT ECCIT DCT GUBJE DCT GISOK DCT TACQI DCT FONZU DCT ELRIP DCT OTMET |
| Aircraft | A320/M-SDE3FGHIRWY/LB1 |
Departure
| Time | 2026-05-08 02:48 |
|---|---|
| Airport | Dublin Airport (EIDW) |
Arrival
| Time | 2026-05-08 03:46 |
|---|---|
| Airport | London Heathrow Airport (EGLL) |
| Time | Latitude | Longitude | Altitude | Speed | Heading |
|---|---|---|---|---|---|
| 2026-05-08 02:04 | 53.42411 | -6.24436 | 211 ft | 0 kts | 135° |
| 2026-05-08 02:35 | 53.42426 | -6.24459 | 189 ft | 4 kts | 142° |
| 2026-05-08 02:35 | 53.42448 | -6.24483 | 171 ft | 4 kts | 166° |
| 2026-05-08 02:36 | 53.42470 | -6.24481 | 211 ft | 3 kts | 236° |
| 2026-05-08 02:36 | 53.42474 | -6.24471 | 214 ft | 0 kts | 240° |
| 2026-05-08 02:41 | 53.42472 | -6.24475 | 211 ft | 3 kts | 239° |
| 2026-05-08 02:41 | 53.42450 | -6.24539 | 216 ft | 6 kts | 243° |
| 2026-05-08 02:41 | 53.42433 | -6.24594 | 215 ft | 5 kts | 243° |
| 2026-05-08 02:42 | 53.42410 | -6.24669 | 216 ft | 10 kts | 241° |
| 2026-05-08 02:42 | 53.42367 | -6.24758 | 211 ft | 9 kts | 227° |
| 2026-05-08 02:42 | 53.42377 | -6.24865 | 212 ft | 17 kts | 323° |
| 2026-05-08 02:42 | 53.42531 | -6.24986 | 211 ft | 26 kts | 338° |
| 2026-05-08 02:43 | 53.42675 | -6.25088 | 214 ft | 23 kts | 336° |
| 2026-05-08 02:43 | 53.42749 | -6.25210 | 214 ft | 14 kts | 331° |
| 2026-05-08 02:43 | 53.42834 | -6.25271 | 211 ft | 13 kts | 335° |
| 2026-05-08 02:43 | 53.42915 | -6.25332 | 211 ft | 12 kts | 336° |
| 2026-05-08 02:44 | 53.42987 | -6.25386 | 211 ft | 10 kts | 336° |
| 2026-05-08 02:44 | 53.43055 | -6.25436 | 213 ft | 14 kts | 336° |
| 2026-05-08 02:44 | 53.43166 | -6.25516 | 211 ft | 19 kts | 337° |
| 2026-05-08 02:44 | 53.43291 | -6.25605 | 211 ft | 20 kts | 337° |
| 2026-05-08 02:45 | 53.43390 | -6.25633 | 214 ft | 10 kts | 41° |
| 2026-05-08 02:45 | 53.43404 | -6.25502 | 211 ft | 16 kts | 94° |
| 2026-05-08 02:45 | 53.43391 | -6.25273 | 214 ft | 21 kts | 95° |
| 2026-05-08 02:45 | 53.43378 | -6.25021 | 211 ft | 22 kts | 95° |
| 2026-05-08 02:46 | 53.43364 | -6.24754 | 211 ft | 24 kts | 95° |
| 2026-05-08 02:46 | 53.43388 | -6.24566 | 211 ft | 13 kts | 27° |
| 2026-05-08 02:46 | 53.43467 | -6.24550 | 213 ft | 10 kts | 4° |
| 2026-05-08 02:46 | 53.43519 | -6.24565 | 221 ft | 7 kts | 314° |
| 2026-05-08 02:47 | 53.43525 | -6.24600 | 215 ft | 0 kts | 275° |
| 2026-05-08 02:47 | 53.43532 | -6.24723 | 222 ft | 42 kts | 274° |
| 2026-05-08 02:47 | 53.43582 | -6.25629 | 209 ft | 110 kts | 275° |
| 2026-05-08 02:47 | 53.43664 | -6.27205 | 216 ft | 162 kts | 274° |
| 2026-05-08 02:48 | 53.43772 | -6.29105 | 762 ft | 163 kts | 279° |
| 2026-05-08 02:48 | 53.44307 | -6.30734 | 1423 ft | 164 kts | 318° |
| 2026-05-08 02:48 | 53.45193 | -6.32049 | 1876 ft | 180 kts | 312° |
| 2026-05-08 02:48 | 53.46036 | -6.33768 | 2162 ft | 202 kts | 306° |
| 2026-05-08 02:49 | 53.46898 | -6.35751 | 2642 ft | 215 kts | 304° |
| 2026-05-08 02:49 | 53.47794 | -6.37906 | 3085 ft | 236 kts | 302° |
| 2026-05-08 02:49 | 53.48763 | -6.40273 | 3657 ft | 251 kts | 301° |
| 2026-05-08 02:49 | 53.49772 | -6.42718 | 4437 ft | 259 kts | 301° |
| 2026-05-08 02:50 | 53.50771 | -6.45279 | 5214 ft | 264 kts | 292° |
| 2026-05-08 02:50 | 53.51055 | -6.48269 | 5919 ft | 262 kts | 256° |
| 2026-05-08 02:50 | 53.50254 | -6.50958 | 6676 ft | 260 kts | 222° |
| 2026-05-08 02:50 | 53.48693 | -6.52340 | 7456 ft | 263 kts | 189° |
| 2026-05-08 02:51 | 53.46857 | -6.52175 | 8249 ft | 268 kts | 170° |
| 2026-05-08 02:51 | 53.45030 | -6.51370 | 8821 ft | 274 kts | 165° |
| 2026-05-08 02:51 | 53.43197 | -6.50400 | 9048 ft | 278 kts | 164° |
| 2026-05-08 02:51 | 53.41336 | -6.49442 | 9842 ft | 279 kts | 166° |
| 2026-05-08 02:52 | 53.39437 | -6.48557 | 10430 ft | 292 kts | 167° |
| 2026-05-08 02:52 | 53.37410 | -6.47712 | 10651 ft | 315 kts | 168° |
| 2026-05-08 02:52 | 53.35192 | -6.46863 | 10830 ft | 338 kts | 169° |
| 2026-05-08 02:52 | 53.32828 | -6.46009 | 11150 ft | 353 kts | 169° |
| 2026-05-08 02:53 | 53.30439 | -6.44800 | 11759 ft | 361 kts | 159° |
| 2026-05-08 02:53 | 53.28138 | -6.43056 | 12425 ft | 365 kts | 157° |
| 2026-05-08 02:53 | 53.25827 | -6.41272 | 13065 ft | 368 kts | 157° |
| 2026-05-08 02:53 | 53.23512 | -6.39477 | 13681 ft | 372 kts | 156° |
| 2026-05-08 02:54 | 53.21148 | -6.37640 | 14291 ft | 376 kts | 156° |
| 2026-05-08 02:54 | 53.18764 | -6.35792 | 14899 ft | 379 kts | 156° |
| 2026-05-08 02:54 | 53.16358 | -6.33933 | 15502 ft | 382 kts | 156° |
| 2026-05-08 02:54 | 53.13937 | -6.32063 | 16114 ft | 385 kts | 156° |
| 2026-05-08 02:55 | 53.11492 | -6.30180 | 16675 ft | 389 kts | 156° |
| 2026-05-08 02:55 | 53.06538 | -6.26375 | 17823 ft | 394 kts | 156° |
| 2026-05-08 02:55 | 53.04070 | -6.24484 | 18377 ft | 397 kts | 156° |
| 2026-05-08 02:56 | 53.01521 | -6.22530 | 18924 ft | 399 kts | 156° |
| 2026-05-08 02:56 | 52.99020 | -6.20616 | 19414 ft | 402 kts | 156° |
| 2026-05-08 02:56 | 52.96471 | -6.18670 | 19905 ft | 405 kts | 156° |
| 2026-05-08 02:56 | 52.93894 | -6.16706 | 20376 ft | 408 kts | 156° |
| 2026-05-08 02:57 | 52.91294 | -6.14719 | 20822 ft | 411 kts | 155° |
| 2026-05-08 02:57 | 52.88712 | -6.12738 | 21255 ft | 413 kts | 155° |
| 2026-05-08 02:57 | 52.86091 | -6.10719 | 21665 ft | 416 kts | 155° |
| 2026-05-08 02:57 | 52.83449 | -6.08683 | 22059 ft | 419 kts | 155° |
| 2026-05-08 02:58 | 52.80786 | -6.06634 | 22443 ft | 422 kts | 155° |
| 2026-05-08 02:58 | 52.78153 | -6.04614 | 22796 ft | 424 kts | 155° |
| 2026-05-08 02:58 | 52.75467 | -6.02564 | 23144 ft | 427 kts | 155° |
| 2026-05-08 02:58 | 52.72751 | -6.00497 | 23482 ft | 430 kts | 155° |
| 2026-05-08 02:59 | 52.70028 | -5.98424 | 23817 ft | 432 kts | 155° |
| 2026-05-08 02:59 | 52.67283 | -5.96333 | 23997 ft | 436 kts | 155° |
| 2026-05-08 02:59 | 52.64522 | -5.94232 | 24309 ft | 438 kts | 155° |
| 2026-05-08 02:59 | 52.61747 | -5.92131 | 24636 ft | 440 kts | 155° |
| 2026-05-08 03:00 | 52.58987 | -5.90045 | 24961 ft | 441 kts | 155° |
| 2026-05-08 03:00 | 52.56179 | -5.87927 | 25303 ft | 442 kts | 155° |
| 2026-05-08 03:00 | 52.53377 | -5.85814 | 25622 ft | 443 kts | 155° |
| 2026-05-08 03:00 | 52.50570 | -5.83695 | 25926 ft | 445 kts | 155° |
| 2026-05-08 03:01 | 52.47747 | -5.81566 | 26206 ft | 446 kts | 155° |
| 2026-05-08 03:01 | 52.44920 | -5.79440 | 26486 ft | 448 kts | 155° |
| 2026-05-08 03:01 | 52.42083 | -5.77308 | 26748 ft | 449 kts | 155° |
| 2026-05-08 03:01 | 52.39193 | -5.75339 | 27000 ft | 450 kts | 161° |
| 2026-05-08 03:02 | 52.36242 | -5.73795 | 27237 ft | 451 kts | 160° |
| 2026-05-08 03:02 | 52.33302 | -5.71943 | 27457 ft | 452 kts | 156° |
| 2026-05-08 03:02 | 52.30422 | -5.69847 | 27696 ft | 453 kts | 154° |
| 2026-05-08 03:02 | 52.27579 | -5.67628 | 28013 ft | 452 kts | 153° |
| 2026-05-08 03:03 | 52.24752 | -5.65394 | 28328 ft | 450 kts | 153° |
| 2026-05-08 03:03 | 52.21912 | -5.63199 | 28628 ft | 450 kts | 154° |
| 2026-05-08 03:03 | 52.19103 | -5.61101 | 28925 ft | 449 kts | 155° |
| 2026-05-08 03:03 | 52.16252 | -5.59038 | 29222 ft | 449 kts | 155° |
| 2026-05-08 03:04 | 52.13382 | -5.57002 | 29511 ft | 448 kts | 155° |
| 2026-05-08 03:04 | 52.10511 | -5.54980 | 29796 ft | 448 kts | 155° |
| 2026-05-08 03:04 | 52.07683 | -5.52984 | 30071 ft | 447 kts | 155° |
| 2026-05-08 03:04 | 52.04828 | -5.50960 | 30351 ft | 447 kts | 155° |
| 2026-05-08 03:05 | 52.01972 | -5.48927 | 30626 ft | 447 kts | 155° |
| 2026-05-08 03:05 | 51.99118 | -5.46887 | 30913 ft | 446 kts | 154° |
| 2026-05-08 03:05 | 51.96312 | -5.44884 | 31190 ft | 445 kts | 154° |
| 2026-05-08 03:05 | 51.93473 | -5.42864 | 31472 ft | 444 kts | 154° |
| 2026-05-08 03:06 | 51.90635 | -5.40849 | 31752 ft | 444 kts | 154° |
| 2026-05-08 03:06 | 51.87810 | -5.38843 | 32024 ft | 443 kts | 154° |
| 2026-05-08 03:06 | 51.84977 | -5.36831 | 32297 ft | 443 kts | 154° |
| 2026-05-08 03:06 | 51.82193 | -5.34853 | 32556 ft | 442 kts | 154° |
| 2026-05-08 03:07 | 51.79371 | -5.32854 | 32819 ft | 442 kts | 154° |
| 2026-05-08 03:07 | 51.76552 | -5.30861 | 32987 ft | 442 kts | 154° |
| 2026-05-08 03:07 | 51.73726 | -5.28867 | 33028 ft | 445 kts | 154° |
| 2026-05-08 03:08 | 51.68048 | -5.24882 | 33029 ft | 446 kts | 155° |
| 2026-05-08 03:08 | 51.62359 | -5.20897 | 33030 ft | 446 kts | 155° |
| 2026-05-08 03:09 | 51.56662 | -5.16913 | 33029 ft | 446 kts | 155° |
| 2026-05-08 03:09 | 51.51015 | -5.12718 | 33027 ft | 447 kts | 148° |
| 2026-05-08 03:10 | 51.46137 | -5.06626 | 33025 ft | 447 kts | 138° |
| 2026-05-08 03:10 | 51.41480 | -5.00021 | 33020 ft | 447 kts | 138° |
| 2026-05-08 03:11 | 51.36810 | -4.93434 | 33018 ft | 447 kts | 138° |
| 2026-05-08 03:11 | 51.32128 | -4.86855 | 33017 ft | 447 kts | 138° |
| 2026-05-08 03:12 | 51.27444 | -4.80291 | 33018 ft | 448 kts | 138° |
| 2026-05-08 03:12 | 51.22784 | -4.73780 | 33022 ft | 448 kts | 138° |
| 2026-05-08 03:13 | 51.18091 | -4.67241 | 33023 ft | 448 kts | 138° |
| 2026-05-08 03:13 | 51.13390 | -4.60697 | 33023 ft | 448 kts | 138° |
| 2026-05-08 03:14 | 51.08691 | -4.54181 | 33022 ft | 448 kts | 138° |
| 2026-05-08 03:14 | 51.04201 | -4.47322 | 33014 ft | 447 kts | 128° |
| 2026-05-08 03:15 | 51.00855 | -4.39070 | 33008 ft | 447 kts | 120° |
| 2026-05-08 03:15 | 50.97670 | -4.30558 | 33008 ft | 448 kts | 120° |
| 2026-05-08 03:16 | 50.94482 | -4.22108 | 33006 ft | 449 kts | 120° |
| 2026-05-08 03:16 | 50.91263 | -4.13612 | 33007 ft | 449 kts | 121° |
| 2026-05-08 03:17 | 50.88038 | -4.05113 | 33011 ft | 449 kts | 120° |
| 2026-05-08 03:17 | 50.84825 | -3.96660 | 33012 ft | 450 kts | 121° |
| 2026-05-08 03:18 | 50.81873 | -3.87939 | 33013 ft | 449 kts | 110° |
| 2026-05-08 03:18 | 50.79889 | -3.78566 | 33014 ft | 449 kts | 108° |
| 2026-05-08 03:19 | 50.77935 | -3.69216 | 33018 ft | 450 kts | 108° |
| 2026-05-08 03:19 | 50.75960 | -3.59842 | 33072 ft | 447 kts | 108° |
| 2026-05-08 03:20 | 50.73993 | -3.50546 | 33084 ft | 445 kts | 109° |
| 2026-05-08 03:20 | 50.72034 | -3.41326 | 33072 ft | 445 kts | 110° |
| 2026-05-08 03:21 | 50.70388 | -3.33633 | 33041 ft | 446 kts | 110° |
| 2026-05-08 03:21 | 50.68387 | -3.24303 | 33040 ft | 452 kts | 110° |
| 2026-05-08 03:22 | 50.66336 | -3.14783 | 33057 ft | 463 kts | 110° |
| 2026-05-08 03:22 | 50.64295 | -3.05136 | 33056 ft | 467 kts | 105° |
| 2026-05-08 03:23 | 50.63566 | -2.94966 | 33057 ft | 468 kts | 87° |
| 2026-05-08 03:23 | 50.64514 | -2.84878 | 33057 ft | 469 kts | 79° |
| 2026-05-08 03:24 | 50.65653 | -2.74735 | 33065 ft | 468 kts | 80° |
| 2026-05-08 03:24 | 50.66760 | -2.64645 | 33064 ft | 466 kts | 80° |
| 2026-05-08 03:25 | 50.67839 | -2.54568 | 32249 ft | 468 kts | 82° |
| 2026-05-08 03:25 | 50.68071 | -2.49460 | 30974 ft | 477 kts | 90° |
| 2026-05-08 03:25 | 50.67905 | -2.44194 | 29734 ft | 483 kts | 94° |
| 2026-05-08 03:25 | 50.67678 | -2.38870 | 28467 ft | 488 kts | 94° |
| 2026-05-08 03:26 | 50.67447 | -2.33520 | 27184 ft | 491 kts | 94° |
| 2026-05-08 03:26 | 50.67214 | -2.28134 | 25846 ft | 492 kts | 94° |
| 2026-05-08 03:26 | 50.66983 | -2.22739 | 24744 ft | 490 kts | 94° |
| 2026-05-08 03:26 | 50.66754 | -2.17426 | 24432 ft | 483 kts | 94° |
| 2026-05-08 03:27 | 50.66524 | -2.12163 | 24183 ft | 481 kts | 94° |
| 2026-05-08 03:27 | 50.66287 | -2.06906 | 23931 ft | 479 kts | 94° |
| 2026-05-08 03:27 | 50.66107 | -2.01750 | 23682 ft | 477 kts | 90° |
| 2026-05-08 03:27 | 50.66167 | -1.96528 | 23433 ft | 475 kts | 89° |
| 2026-05-08 03:28 | 50.66231 | -1.91323 | 23227 ft | 472 kts | 89° |
| 2026-05-08 03:28 | 50.66294 | -1.86153 | 22967 ft | 471 kts | 89° |
| 2026-05-08 03:28 | 50.66356 | -1.80973 | 22643 ft | 469 kts | 89° |
| 2026-05-08 03:28 | 50.66414 | -1.75838 | 22321 ft | 464 kts | 89° |
| 2026-05-08 03:29 | 50.66466 | -1.70912 | 22144 ft | 446 kts | 89° |
| 2026-05-08 03:29 | 50.66513 | -1.66119 | 21967 ft | 430 kts | 89° |
| 2026-05-08 03:29 | 50.66563 | -1.61468 | 21721 ft | 420 kts | 88° |
| 2026-05-08 03:29 | 50.66861 | -1.56898 | 21397 ft | 416 kts | 80° |
| 2026-05-08 03:30 | 50.68950 | -1.48568 | 20478 ft | 409 kts | 52° |
| 2026-05-08 03:30 | 50.72796 | -1.42097 | 19977 ft | 398 kts | 44° |
| 2026-05-08 03:31 | 50.76620 | -1.36119 | 19462 ft | 368 kts | 44° |
| 2026-05-08 03:31 | 50.80102 | -1.30713 | 18962 ft | 340 kts | 44° |
| 2026-05-08 03:32 | 50.81775 | -1.28100 | 18699 ft | 336 kts | 44° |
| 2026-05-08 03:32 | 50.83426 | -1.25511 | 18470 ft | 333 kts | 44° |
| 2026-05-08 03:32 | 50.85069 | -1.22926 | 18177 ft | 332 kts | 44° |
| 2026-05-08 03:32 | 50.86716 | -1.20331 | 17631 ft | 336 kts | 44° |
| 2026-05-08 03:33 | 50.88362 | -1.17735 | 17358 ft | 331 kts | 44° |
| 2026-05-08 03:33 | 50.89991 | -1.15161 | 16953 ft | 331 kts | 44° |
| 2026-05-08 03:33 | 50.91597 | -1.12621 | 16602 ft | 329 kts | 44° |
| 2026-05-08 03:33 | 50.93213 | -1.10064 | 16251 ft | 327 kts | 44° |
| 2026-05-08 03:34 | 50.94818 | -1.07526 | 15902 ft | 325 kts | 44° |
| 2026-05-08 03:34 | 50.96418 | -1.04993 | 15546 ft | 324 kts | 44° |
| 2026-05-08 03:34 | 50.98008 | -1.02472 | 15202 ft | 322 kts | 44° |
| 2026-05-08 03:34 | 50.99589 | -0.99958 | 14858 ft | 321 kts | 44° |
| 2026-05-08 03:35 | 51.01164 | -0.97473 | 14538 ft | 316 kts | 42° |
| 2026-05-08 03:35 | 51.02989 | -0.95645 | 13921 ft | 310 kts | 21° |
| 2026-05-08 03:35 | 51.05016 | -0.94496 | 13257 ft | 308 kts | 15° |
| 2026-05-08 03:35 | 51.07080 | -0.93593 | 12630 ft | 305 kts | 13° |
| 2026-05-08 03:36 | 51.09110 | -0.92772 | 12005 ft | 303 kts | 13° |
| 2026-05-08 03:36 | 51.11133 | -0.91931 | 11388 ft | 299 kts | 14° |
| 2026-05-08 03:36 | 51.13134 | -0.91050 | 10756 ft | 297 kts | 15° |
| 2026-05-08 03:36 | 51.15111 | -0.90135 | 10128 ft | 294 kts | 16° |
| 2026-05-08 03:37 | 51.17059 | -0.89202 | 9543 ft | 290 kts | 16° |
| 2026-05-08 03:37 | 51.18961 | -0.88276 | 9097 ft | 281 kts | 16° |
| 2026-05-08 03:37 | 51.20793 | -0.87379 | 8718 ft | 270 kts | 16° |
| 2026-05-08 03:37 | 51.22549 | -0.86515 | 8350 ft | 259 kts | 16° |
| 2026-05-08 03:38 | 51.24248 | -0.85679 | 7996 ft | 253 kts | 16° |
| 2026-05-08 03:38 | 51.25935 | -0.84849 | 7642 ft | 253 kts | 16° |
| 2026-05-08 03:38 | 51.27592 | -0.84034 | 7298 ft | 252 kts | 16° |
| 2026-05-08 03:38 | 51.29262 | -0.83212 | 6939 ft | 247 kts | 16° |
| 2026-05-08 03:39 | 51.30880 | -0.82415 | 6601 ft | 241 kts | 16° |
| 2026-05-08 03:39 | 51.32479 | -0.81626 | 6260 ft | 241 kts | 16° |
| 2026-05-08 03:39 | 51.34087 | -0.80832 | 5879 ft | 242 kts | 16° |
| 2026-05-08 03:39 | 51.35684 | -0.80042 | 5516 ft | 236 kts | 16° |
| 2026-05-08 03:40 | 51.37249 | -0.79269 | 5190 ft | 233 kts | 16° |
| 2026-05-08 03:40 | 51.38809 | -0.78685 | 4882 ft | 228 kts | 2° |
| 2026-05-08 03:40 | 51.40371 | -0.78737 | 4583 ft | 227 kts | 357° |
| 2026-05-08 03:40 | 51.41952 | -0.78832 | 4263 ft | 228 kts | 357° |
| 2026-05-08 03:41 | 51.43526 | -0.78923 | 3949 ft | 224 kts | 357° |
| 2026-05-08 03:41 | 51.45068 | -0.79009 | 3706 ft | 221 kts | 357° |
| 2026-05-08 03:41 | 51.46580 | -0.78796 | 3443 ft | 217 kts | 24° |
| 2026-05-08 03:41 | 51.47635 | -0.77207 | 3200 ft | 211 kts | 68° |
| 2026-05-08 03:42 | 51.47744 | -0.74918 | 2989 ft | 208 kts | 99° |
| 2026-05-08 03:42 | 51.47616 | -0.72609 | 2824 ft | 208 kts | 90° |
| 2026-05-08 03:42 | 51.47631 | -0.70286 | 2689 ft | 209 kts | 89° |
| 2026-05-08 03:42 | 51.47651 | -0.67965 | 2436 ft | 205 kts | 90° |
| 2026-05-08 03:43 | 51.47665 | -0.65733 | 2217 ft | 195 kts | 90° |
| 2026-05-08 03:43 | 51.47677 | -0.63603 | 1937 ft | 188 kts | 90° |
| 2026-05-08 03:43 | 51.47688 | -0.61538 | 1684 ft | 181 kts | 90° |
| 2026-05-08 03:43 | 51.47698 | -0.59578 | 1452 ft | 171 kts | 89° |
| 2026-05-08 03:44 | 51.47707 | -0.57712 | 1229 ft | 162 kts | 90° |
| 2026-05-08 03:44 | 51.47715 | -0.55972 | 1037 ft | 150 kts | 90° |
| 2026-05-08 03:44 | 51.47726 | -0.54334 | 826 ft | 144 kts | 89° |
| 2026-05-08 03:44 | 51.47747 | -0.52760 | 622 ft | 141 kts | 90° |
| 2026-05-08 03:45 | 51.47738 | -0.51186 | 441 ft | 141 kts | 90° |
| 2026-05-08 03:45 | 51.47747 | -0.49623 | 260 ft | 139 kts | 91° |
| 2026-05-08 03:45 | 51.47752 | -0.48069 | 101 ft | 138 kts | 91° |
| 2026-05-08 03:45 | 51.47755 | -0.46708 | 91 ft | 99 kts | 90° |
| 2026-05-08 03:46 | 51.47756 | -0.45838 | 86 ft | 64 kts | 89° |
| 2026-05-08 03:46 | 51.47759 | -0.45327 | 88 ft | 28 kts | 90° |
| 2026-05-08 03:46 | 51.47680 | -0.45179 | 87 ft | 17 kts | 177° |
| 2026-05-08 03:46 | 51.47603 | -0.45148 | 87 ft | 9 kts | 133° |
| 2026-05-08 03:47 | 51.47597 | -0.45054 | 89 ft | 10 kts | 89° |
| 2026-05-08 03:47 | 51.47597 | -0.44917 | 87 ft | 12 kts | 90° |
| 2026-05-08 03:47 | 51.47598 | -0.44760 | 87 ft | 16 kts | 89° |
| 2026-05-08 03:47 | 51.47550 | -0.44673 | 87 ft | 7 kts | 191° |
| 2026-05-08 03:48 | 51.47503 | -0.44613 | 87 ft | 14 kts | 118° |
| 2026-05-08 03:48 | 51.47417 | -0.44562 | 88 ft | 13 kts | 176° |
| 2026-05-08 03:48 | 51.47328 | -0.44561 | 87 ft | 12 kts | 180° |
| 2026-05-08 03:48 | 51.47251 | -0.44562 | 87 ft | 10 kts | 180° |
| 2026-05-08 03:49 | 51.47184 | -0.44562 | 89 ft | 9 kts | 179° |
| 2026-05-08 03:49 | 51.47113 | -0.44560 | 87 ft | 13 kts | 179° |
| 2026-05-08 03:49 | 51.47002 | -0.44555 | 87 ft | 18 kts | 178° |
| 2026-05-08 03:49 | 51.46869 | -0.44559 | 87 ft | 20 kts | 180° |
| 2026-05-08 03:50 | 51.46759 | -0.44605 | 89 ft | 14 kts | 247° |
| 2026-05-08 03:50 | 51.46752 | -0.44752 | 87 ft | 12 kts | 270° |
| 2026-05-08 03:50 | 51.46752 | -0.44875 | 87 ft | 9 kts | 270° |
| 2026-05-08 03:50 | 51.46752 | -0.44935 | 87 ft | 0 kts | 269° |
| 2026-05-08 03:51 | 51.46752 | -0.44939 | 87 ft | 2 kts | 269° |
| 2026-05-08 03:51 | 51.46759 | -0.44970 | 87 ft | 5 kts | 313° |
| 2026-05-08 03:51 | 51.46807 | -0.44981 | 87 ft | 7 kts | 1° |
| 2026-05-08 03:51 | 51.46826 | -0.44981 | 89 ft | 1 kts | 360° |